Little Rock, Arkansas
Current Conditions -  °F | °C
As of 7:53 PM on Saturday 22 Nov 2014 (Local Time) from KLIT Reporting Station
Broken Clouds Broken Clouds  
Wind Chill: 60°   Ceiling: 25000
Heat Index: 60°   Visibility: 10mi
Dew Point: 52°   Wind: 7mph
Humidity: 75%   Direction: 140°SE
Pressure: 29.96"   Gusts: NA
Location:  34.75°N, 92.27°W
Report Text: KLIT 230153Z 14006KT 10SM SCT046 SCT080 BKN250 16/11 A2996 RMK AO2 SLP149 T01560111
Loading
Personal Weather Stations






























Interactive Weather Map New forecast layout! Learn more

10-Day Weather Forecast

Advertisements
Track Severe Weather on mobile